Terminal Aerodrome Forecast
Issued by NWS

Home | Current Version | Previous Version | Text Only | Print | Product List | Glossary On
Versions: 1 2 3 4 5 6 7 8 9 10 11 12 13 14 15 16 17 18 19 20 21 22 23 24
000
FTUS43 KMKX 260858 AAA
TAFENW
TAF AMD
KENW 260858Z 2609/2706 27006KT P6SM SKC
     FM261500 29011G23KT P6SM FEW250
     FM261800 30015G24KT P6SM SCT040 BKN090
     FM262000 31015G25KT P6SM VCSH BKN045
     FM262300 33013G21KT P6SM BKN050
     FM270000 33008KT P6SM SCT050=

USA.gov is the U.S. government's official web portal to all federal, state and local government web resources and services.